createdAt,value
2022-08-09T00:01:54.131Z,100862.25
2022-08-09T00:05:02.947Z,100850.69
2022-08-09T00:08:31.824Z,100850.69
2022-08-09T00:12:03.920Z,100850.06
2022-08-09T00:15:06.771Z,100853.16
2022-08-09T00:18:11.478Z,100843.47
2022-08-09T00:21:15.260Z,100850.06
2022-08-09T00:24:19.782Z,100861.41
2022-08-09T00:27:22.585Z,100873.00
2022-08-09T00:30:27.016Z,100869.47
2022-08-09T00:33:32.679Z,100859.38
2022-08-09T00:36:52.240Z,100851.72
2022-08-09T00:40:12.955Z,100856.47
2022-08-09T00:44:13.996Z,100853.38
2022-08-09T00:46:56.340Z,100850.28
2022-08-09T00:50:04.809Z,100856.28
2022-08-09T00:53:10.127Z,100856.69
2022-08-09T00:56:14.782Z,100853.97
2022-08-09T00:59:31.646Z,100846.75
2022-08-09T01:02:50.234Z,100844.28
2022-08-09T01:06:22.229Z,100842.81
2022-08-09T01:09:44.303Z,100846.13
2022-08-09T01:13:04.611Z,100852.75
2022-08-09T01:16:12.916Z,100852.94
2022-08-09T01:19:43.044Z,100844.91
2022-08-09T01:24:02.478Z,100840.97
2022-08-09T01:26:57.656Z,100837.66
2022-08-09T01:30:08.425Z,100831.47
2022-08-09T01:33:38.538Z,100833.94
2022-08-09T01:36:43.293Z,100831.66
2022-08-09T01:39:50.668Z,100827.72
2022-08-09T01:42:57.029Z,100828.53
2022-08-09T01:46:00.735Z,100832.47
2022-08-09T01:49:24.103Z,100832.88
2022-08-09T01:52:27.782Z,100826.69
2022-08-09T01:55:35.722Z,100817.16
2022-08-09T01:58:43.751Z,100814.91
2022-08-09T02:01:58.497Z,100807.47
2022-08-09T02:05:15.901Z,100803.94
2022-08-09T02:08:40.609Z,100807.28
2022-08-09T02:11:45.234Z,100816.78
2022-08-09T02:14:52.060Z,100816.16
2022-08-09T02:18:01.445Z,100817.59
2022-08-09T02:21:22.090Z,100817.38
2022-08-09T02:24:35.367Z,100815.34
2022-08-09T02:27:57.835Z,100812.22
2022-08-09T02:31:31.440Z,100808.50
2022-08-09T02:34:51.815Z,100812.00
2022-08-09T02:38:00.597Z,100807.25
2022-08-09T02:41:11.723Z,100806.25
2022-08-09T02:44:29.040Z,100802.72
2022-08-09T02:47:58.121Z,100804.16
2022-08-09T02:51:02.582Z,100795.72
2022-08-09T02:54:07.166Z,100796.87
2022-08-09T02:57:13.671Z,100801.59
2022-08-09T03:00:27.085Z,100806.53
2022-08-09T03:04:12.928Z,100804.69
2022-08-09T03:06:56.358Z,100796.78
2022-08-09T03:10:04.020Z,100811.88
2022-08-09T03:13:08.316Z,100814.13
2022-08-09T03:16:20.671Z,100813.44
2022-08-09T03:19:59.278Z,100812.22
2022-08-09T03:22:56.818Z,100815.69
2022-08-09T03:26:05.093Z,100816.72
2022-08-09T03:29:09.632Z,100812.78
2022-08-09T03:32:17.357Z,100819.78
2022-08-09T03:35:44.370Z,100820.00
2022-08-09T03:38:46.094Z,100819.41
2022-08-09T03:41:49.100Z,100817.72
2022-08-09T03:45:09.004Z,100819.56
2022-08-09T03:48:11.916Z,100817.78
2022-08-09T03:51:56.613Z,100822.44
2022-08-09T03:54:48.889Z,100818.31
2022-08-09T03:58:03.327Z,100818.31
2022-08-09T04:01:13.284Z,100816.63
2022-08-09T04:04:17.477Z,100809.63
2022-08-09T04:07:20.561Z,100810.00
2022-08-09T04:10:29.027Z,100807.34
2022-08-09T04:14:36.570Z,100815.00
2022-08-09T04:16:57.426Z,100813.78
2022-08-09T04:20:02.644Z,100815.69
2022-08-09T04:23:10.007Z,100812.25
2022-08-09T04:26:19.637Z,100822.63
2022-08-09T04:29:26.248Z,100819.09
2022-08-09T04:32:37.008Z,100829.44
2022-08-09T04:35:42.475Z,100833.41
2022-08-09T04:38:45.198Z,100834.91
2022-08-09T04:41:48.146Z,100839.88
2022-08-09T04:44:50.766Z,100844.03
2022-08-09T04:48:01.204Z,100838.88
2022-08-09T04:51:05.706Z,100842.00
2022-08-09T04:54:08.654Z,100842.84
2022-08-09T04:57:12.941Z,100841.78
2022-08-09T05:00:16.991Z,100842.44
2022-08-09T05:03:42.655Z,100845.09
2022-08-09T05:06:44.200Z,100842.62
2022-08-09T05:09:49.912Z,100842.03
2022-08-09T05:12:53.188Z,100842.03
2022-08-09T05:15:56.510Z,100840.97
2022-08-09T05:19:00.635Z,100849.66
2022-08-09T05:22:05.436Z,100850.06
2022-08-09T05:25:32.649Z,100853.13
2022-08-09T05:28:35.465Z,100855.78
2022-08-09T05:31:46.397Z,100856.41
2022-08-09T05:34:51.783Z,100863.00
2022-08-09T05:37:55.836Z,100856.09
2022-08-09T05:40:58.787Z,100857.13
2022-08-09T05:44:01.639Z,100860.78
2022-08-09T05:47:05.572Z,100855.53
2022-08-09T05:50:30.611Z,100858.81
2022-08-09T05:53:34.016Z,100863.53
2022-08-09T05:56:39.035Z,100864.75
2022-08-09T05:59:58.183Z,100860.28
2022-08-09T06:03:03.634Z,100856.44
2022-08-09T06:06:06.881Z,100865.06
2022-08-09T06:09:40.659Z,100861.19
2022-08-09T06:12:33.083Z,100858.34
2022-08-09T06:15:36.608Z,100861.91
2022-08-09T06:18:39.441Z,100858.66
2022-08-09T06:21:51.500Z,100870.28
2022-08-09T06:25:01.109Z,100867.00
2022-08-09T06:28:04.039Z,100869.97
2022-08-09T06:31:08.070Z,100866.16
2022-08-09T06:34:10.595Z,100868.69
2022-08-09T06:37:13.451Z,100863.66
2022-08-09T06:40:21.738Z,100873.75
2022-08-09T06:43:27.227Z,100869.59
2022-08-09T06:46:40.564Z,100869.69
2022-08-09T06:50:11.998Z,100865.75
2022-08-09T06:53:06.989Z,100870.22
2022-08-09T06:56:09.787Z,100864.50
2022-08-09T07:00:49.220Z,100861.78
2022-08-09T07:02:36.720Z,100865.00
2022-08-09T07:06:03.111Z,100872.28
2022-08-09T07:09:04.580Z,100864.00
2022-08-09T07:12:07.211Z,100868.09
2022-08-09T07:16:36.090Z,100868.66
2022-08-09T07:18:39.301Z,100871.03
2022-08-09T07:21:43.403Z,100868.19
2022-08-09T07:24:58.768Z,100880.31
2022-08-09T07:28:04.302Z,100880.87
2022-08-09T07:31:07.086Z,100874.88
2022-08-09T07:34:10.013Z,100876.09
2022-08-09T07:37:23.458Z,100884.09
2022-08-09T07:40:37.217Z,100874.50
2022-08-09T07:43:56.264Z,100867.34
2022-08-09T07:46:59.549Z,100867.59
2022-08-09T07:50:08.619Z,100868.53
2022-08-09T07:53:12.515Z,100860.78
2022-08-09T07:56:27.143Z,100866.41
2022-08-09T07:59:34.439Z,100867.59
2022-08-09T08:02:48.760Z,100865.28
2022-08-09T08:05:58.219Z,100870.59
2022-08-09T08:09:07.507Z,100870.41
2022-08-09T08:12:36.468Z,100871.34
2022-08-09T08:15:37.666Z,100873.91
2022-08-09T08:18:43.237Z,100869.69
2022-08-09T08:21:52.564Z,100868.00
2022-08-09T08:24:57.451Z,100861.25
2022-08-09T08:28:00.160Z,100860.09
2022-08-09T08:31:14.243Z,100852.66
2022-08-09T08:34:25.432Z,100863.16
2022-08-09T08:37:41.913Z,100860.06
2022-08-09T08:40:55.611Z,100858.56
2022-08-09T08:44:02.542Z,100854.88
2022-08-09T08:47:12.349Z,100852.69
2022-08-09T08:50:18.211Z,100863.22
2022-08-09T08:53:22.331Z,100860.37
2022-08-09T08:56:28.192Z,100855.66
2022-08-09T08:59:46.815Z,100856.25
2022-08-09T09:02:53.552Z,100864.84
2022-08-09T09:06:05.038Z,100853.66
2022-08-09T09:09:41.209Z,100857.44
2022-08-09T09:12:35.415Z,100858.25
2022-08-09T09:15:38.857Z,100853.09
2022-08-09T09:18:48.151Z,100851.53
2022-08-09T09:22:11.300Z,100846.22
2022-08-09T09:26:00.963Z,100847.69
2022-08-09T09:29:03.965Z,100843.25
2022-08-09T09:32:20.237Z,100846.44
2022-08-09T09:36:02.577Z,100846.09
2022-08-09T09:39:10.003Z,100837.78
2022-08-09T09:42:24.680Z,100842.88
2022-08-09T09:45:29.539Z,100839.78
2022-08-09T09:48:35.135Z,100845.41
2022-08-09T09:51:40.259Z,100848.78
2022-08-09T09:54:55.673Z,100844.28
2022-08-09T09:58:15.534Z,100845.66
2022-08-09T10:01:31.373Z,100853.72
2022-08-09T10:04:42.295Z,100837.94
2022-08-09T10:08:10.919Z,100843.59
2022-08-09T10:11:54.298Z,100840.06
2022-08-09T10:14:48.213Z,100834.13
2022-08-09T10:17:56.242Z,100835.50
2022-08-09T10:21:09.839Z,100821.69
2022-08-09T10:24:16.109Z,100816.72
2022-08-09T10:27:34.789Z,100818.50
2022-08-09T10:34:18.925Z,100817.28
2022-08-09T10:37:28.409Z,100813.72
2022-08-09T10:40:41.116Z,100813.63
2022-08-09T10:44:00.000Z,100803.41
2022-08-09T10:48:12.703Z,100803.94
2022-08-09T10:51:09.666Z,100812.12
2022-08-09T10:54:13.839Z,100801.44
2022-08-09T10:57:17.035Z,100801.09
2022-08-09T11:00:28.839Z,100801.75
2022-08-09T11:03:50.098Z,100795.41
2022-08-09T11:07:03.724Z,100788.06
2022-08-09T11:10:07.630Z,100787.78
2022-08-09T11:13:49.093Z,100780.88
2022-08-09T11:16:42.962Z,100788.09
2022-08-09T11:20:20.495Z,100788.59
2022-08-09T11:23:29.920Z,100783.63
2022-08-09T11:26:40.824Z,100776.06
2022-08-09T11:30:04.721Z,100775.97
2022-08-09T11:33:19.181Z,100771.88
2022-08-09T11:36:35.575Z,100765.22
2022-08-09T11:40:06.385Z,100779.03
2022-08-09T11:43:14.548Z,100769.03
2022-08-09T11:46:18.647Z,100763.03
2022-08-09T11:50:56.530Z,100763.97
2022-08-09T11:53:58.363Z,100765.00
2022-08-09T11:56:48.501Z,100754.56
2022-08-09T11:59:52.226Z,100764.12
2022-08-09T12:02:57.751Z,100751.63
2022-08-09T12:06:08.671Z,100763.50
2022-08-09T12:09:17.567Z,100752.13
2022-08-09T12:12:29.204Z,100751.94
2022-08-09T12:15:50.374Z,100747.84
2022-08-09T12:18:55.637Z,100753.44
2022-08-09T12:22:04.159Z,100752.53
2022-08-09T12:25:15.586Z,100736.66
2022-08-09T12:29:11.995Z,100738.75
2022-08-09T12:32:02.198Z,100735.28
2022-08-09T12:35:11.037Z,100736.25
2022-08-09T12:38:29.810Z,100732.09
2022-08-09T12:41:40.972Z,100723.66
2022-08-09T12:44:52.464Z,100723.25
2022-08-09T12:47:57.483Z,100721.13
2022-08-09T12:51:04.028Z,100720.78
2022-08-09T12:54:07.703Z,100717.31
2022-08-09T12:57:10.815Z,100716.56
2022-08-09T13:00:34.434Z,100718.50
2022-08-09T13:03:53.607Z,100721.37
2022-08-09T13:07:19.628Z,100721.94
2022-08-09T13:10:23.472Z,100711.19
2022-08-09T13:14:11.932Z,100709.81
2022-08-09T13:17:08.493Z,100712.19
2022-08-09T13:20:18.674Z,100710.91
2022-08-09T13:24:16.340Z,100719.50
2022-08-09T13:27:06.014Z,100720.91
2022-08-09T13:30:51.255Z,100721.50
2022-08-09T13:33:53.775Z,100710.41
2022-08-09T13:36:59.328Z,100713.16
2022-08-09T13:41:50.597Z,100712.59
2022-08-09T13:43:35.957Z,100718.16
2022-08-09T13:47:17.762Z,100712.03
2022-08-09T13:50:12.667Z,100712.13
2022-08-09T13:53:21.060Z,100709.03
2022-08-09T13:56:42.706Z,100704.56
2022-08-09T13:59:52.986Z,100702.66
2022-08-09T14:03:03.061Z,100704.06
2022-08-09T14:06:26.443Z,100706.69
2022-08-09T14:09:30.337Z,100709.06
2022-08-09T14:12:37.903Z,100704.25
2022-08-09T14:16:09.105Z,100699.47
2022-08-09T14:19:07.090Z,100703.62
2022-08-09T14:22:10.158Z,100705.06
2022-08-09T14:25:13.128Z,100702.53
2022-08-09T14:28:15.784Z,100701.37
2022-08-09T14:31:23.764Z,100699.09
2022-08-09T14:34:46.273Z,100698.56
2022-08-09T14:38:03.009Z,100692.72
2022-08-09T14:41:34.630Z,100696.53
2022-08-09T14:44:32.621Z,100694.72
2022-08-09T14:47:57.508Z,100699.75
2022-08-09T14:51:02.485Z,100692.88
2022-08-09T14:54:09.547Z,100694.09
2022-08-09T14:57:12.457Z,100685.53
2022-08-09T15:00:15.196Z,100684.87
2022-08-09T15:03:20.013Z,100687.84
2022-08-09T15:06:23.104Z,100686.22
2022-08-09T15:10:04.538Z,100687.47
2022-08-09T15:12:54.124Z,100683.66
2022-08-09T15:15:57.195Z,100684.25
2022-08-09T15:19:02.469Z,100677.19
2022-08-09T15:22:18.749Z,100678.75
2022-08-09T15:25:33.552Z,100674.66
2022-08-09T15:28:44.252Z,100681.31
2022-08-09T15:31:57.938Z,100675.66
2022-08-09T15:35:01.053Z,100679.41
2022-08-09T15:38:11.672Z,100671.06
2022-08-09T15:41:22.297Z,100674.97
2022-08-09T15:44:25.065Z,100675.84
2022-08-09T15:47:47.086Z,100675.78
2022-08-09T15:50:50.733Z,100678.78
2022-08-09T15:54:04.806Z,100671.34
2022-08-09T15:57:10.788Z,100675.16
2022-08-09T16:00:25.868Z,100668.25
2022-08-09T16:03:38.776Z,100671.72
2022-08-09T16:06:44.739Z,100668.56
2022-08-09T16:10:04.267Z,100668.13
2022-08-09T16:13:21.207Z,100666.88
2022-08-09T16:16:31.706Z,100671.41
2022-08-09T16:19:36.540Z,100664.41
2022-08-09T16:22:42.353Z,100669.25
2022-08-09T16:25:51.892Z,100670.59
2022-08-09T16:29:11.331Z,100671.09
2022-08-09T16:32:33.213Z,100672.97
2022-08-09T16:35:56.150Z,100678.59
2022-08-09T16:39:01.756Z,100674.03
2022-08-09T16:42:07.259Z,100670.56
2022-08-09T16:45:11.146Z,100682.91
2022-08-09T16:48:41.610Z,100676.88
2022-08-09T16:51:36.727Z,100680.19
2022-08-09T16:54:42.080Z,100686.19
2022-08-09T16:58:08.875Z,100672.84
2022-08-09T17:01:08.353Z,100676.12
2022-08-09T17:04:28.055Z,100681.59
2022-08-09T17:08:47.088Z,100682.09
2022-08-09T17:10:54.968Z,100689.72
2022-08-09T17:14:01.294Z,100689.19
2022-08-09T17:17:12.770Z,100687.28
2022-08-09T17:20:37.441Z,100688.63
2022-08-09T17:24:28.071Z,100688.09
2022-08-09T17:27:06.665Z,100685.38
2022-08-09T17:30:19.810Z,100684.22
2022-08-09T17:33:23.589Z,100680.97
2022-08-09T17:36:26.371Z,100690.47
2022-08-09T17:39:48.306Z,100692.41
2022-08-09T17:42:55.654Z,100697.56
2022-08-09T17:46:06.931Z,100697.84
2022-08-09T17:49:10.290Z,100695.63
2022-08-09T17:52:20.670Z,100703.53
2022-08-09T17:55:25.383Z,100706.50
2022-08-09T17:58:48.435Z,100708.66
2022-08-09T18:02:06.401Z,100720.59
2022-08-09T18:05:14.192Z,100717.31
2022-08-09T18:08:16.727Z,100717.53
2022-08-09T18:11:20.741Z,100724.06
2022-08-09T18:14:27.024Z,100722.38
2022-08-09T18:18:02.601Z,100731.06
2022-08-09T18:21:10.466Z,100737.84
2022-08-09T18:24:16.879Z,100743.50
2022-08-09T18:28:02.132Z,100751.06
2022-08-09T18:30:49.448Z,100755.34
2022-08-09T18:33:53.531Z,100759.75
2022-08-09T18:36:56.948Z,100760.78
2022-08-09T18:40:00.419Z,100772.75
2022-08-09T18:43:03.801Z,100792.53
2022-08-09T18:46:46.544Z,100793.37
2022-08-09T18:49:31.923Z,100806.63
2022-08-09T18:52:44.980Z,100815.81
2022-08-09T18:56:05.021Z,100821.44
2022-08-09T18:59:08.309Z,100827.53
2022-08-09T19:02:12.054Z,100831.75
2022-08-09T19:05:20.673Z,100841.34
2022-08-09T19:08:41.266Z,100839.25
2022-08-09T19:11:57.956Z,100856.78
2022-08-09T19:15:00.911Z,100856.22
2022-08-09T19:18:06.440Z,100871.06
2022-08-09T19:21:21.634Z,100877.44
2022-08-09T19:25:11.328Z,100880.16
2022-08-09T19:28:06.568Z,100880.19
2022-08-09T19:31:09.128Z,100896.47
2022-08-09T19:34:21.798Z,100898.25
2022-08-09T19:37:26.177Z,100902.97
2022-08-09T19:40:33.225Z,100906.03
2022-08-09T19:44:01.009Z,100913.28
2022-08-09T19:47:00.195Z,100912.06
2022-08-09T19:50:08.929Z,100915.97
2022-08-09T19:53:26.447Z,100922.75
2022-08-09T19:56:29.625Z,100921.09
2022-08-09T19:59:58.270Z,100910.22
2022-08-09T20:04:07.437Z,100911.47
2022-08-09T20:06:31.253Z,100918.47
2022-08-09T20:09:44.958Z,100919.13
2022-08-09T20:12:49.105Z,100915.50
2022-08-09T20:16:34.502Z,100911.59
2022-08-09T20:19:42.420Z,100909.56
2022-08-09T20:22:44.735Z,100912.91
2022-08-09T20:25:52.539Z,100918.22
2022-08-09T20:28:55.805Z,100933.69
2022-08-09T20:32:30.891Z,100940.91
2022-08-09T20:35:21.879Z,100944.91
2022-08-09T20:38:34.003Z,100948.09
2022-08-09T20:41:49.121Z,100946.13
2022-08-09T20:45:04.518Z,100946.84
2022-08-09T20:48:20.855Z,100943.38
2022-08-09T20:51:25.056Z,100950.94
2022-08-09T20:54:27.859Z,100946.69
2022-08-09T20:57:32.521Z,100940.56
2022-08-09T21:00:36.176Z,100948.69
2022-08-09T21:04:07.906Z,100951.63
2022-08-09T21:07:13.758Z,100951.75
2022-08-09T21:10:17.739Z,100949.19
2022-08-09T21:13:21.359Z,100952.13
2022-08-09T21:16:28.256Z,100964.59
2022-08-09T21:20:05.069Z,100965.16
2022-08-09T21:22:56.016Z,100968.84
2022-08-09T21:26:00.269Z,100963.88
2022-08-09T21:29:12.035Z,100970.13
2022-08-09T21:32:18.769Z,100971.44
2022-08-09T21:35:22.051Z,100974.59
2022-08-09T21:38:31.069Z,100976.00
2022-08-09T21:42:05.479Z,100971.66
2022-08-09T21:44:58.024Z,100976.59
2022-08-09T21:48:00.849Z,100973.78
2022-08-09T21:51:03.434Z,100973.66
2022-08-09T21:54:06.295Z,100972.25
2022-08-09T21:57:36.942Z,100983.31
2022-08-09T22:00:35.902Z,100979.19
2022-08-09T22:03:58.948Z,100972.47
2022-08-09T22:07:02.086Z,100977.53
2022-08-09T22:10:10.784Z,100982.81
2022-08-09T22:13:13.857Z,100979.53
2022-08-09T22:16:21.326Z,100981.03
2022-08-09T22:19:59.103Z,100983.38
2022-08-09T22:22:49.393Z,100984.06
2022-08-09T22:26:07.033Z,100982.87
2022-08-09T22:29:12.554Z,100976.31
2022-08-09T22:32:29.688Z,100973.22
2022-08-09T22:36:01.924Z,100968.06
2022-08-09T22:38:56.886Z,100964.97
2022-08-09T22:42:04.094Z,100950.50
2022-08-09T22:48:10.777Z,100963.53
2022-08-09T22:48:50.280Z,100956.22
2022-08-09T22:51:56.980Z,100959.69
2022-08-09T22:55:00.316Z,100957.91
2022-08-09T22:58:04.965Z,100956.78
2022-08-09T23:01:08.231Z,100951.69
2022-08-09T23:04:10.755Z,100962.06
2022-08-09T23:08:22.073Z,100954.56
2022-08-09T23:10:54.615Z,100964.62
2022-08-09T23:13:58.737Z,100965.97
2022-08-09T23:17:01.279Z,100955.22
2022-08-09T23:20:07.832Z,100959.37
2022-08-09T23:23:10.896Z,100959.81
2022-08-09T23:26:13.680Z,100952.84
2022-08-09T23:29:17.741Z,100951.84
2022-08-09T23:32:20.564Z,100954.34
2022-08-09T23:35:23.595Z,100947.88
2022-08-09T23:38:26.432Z,100943.72
2022-08-09T23:41:29.748Z,100942.25
2022-08-09T23:44:32.716Z,100936.03
2022-08-09T23:47:35.203Z,100945.41
2022-08-09T23:50:38.122Z,100951.13
2022-08-09T23:53:40.663Z,100950.38
2022-08-09T23:56:53.920Z,100955.37
